This is the latest recevied weather packets stored in our database for station/object K2ATL. If no packets are shown the sender has not sent any weather packets the latest 10 day(s).
| Time | Temp. | Humidity | Pressure | Rain* | Wind** | Luminosity | Snow |
|---|---|---|---|---|---|---|---|
| 1787715411 | 21.67° C | 74% | 1104.8 hPa | 0 mm | - | 0 W/m² | - |
| 1787715106 | 21.67° C | 75% | 1104.8 hPa | 0 mm | - | 0 W/m² | - |
| 1787714803 | 21.11° C | 77% | 1104.3 hPa | 0 mm | - | 0 W/m² | - |
| 1787714494 | 21.11° C | 77% | 1104.5 hPa | 0 mm | - | 0 W/m² | - |
| 1787714190 | 21.11° C | 78% | 1104.5 hPa | 0 mm | - | 0 W/m² | - |
| 1787713887 | 20.56° C | 79% | 1104.5 hPa | 0 mm | - | 0 W/m² | - |
| 1787713582 | 21.11° C | 78% | 1104.6 hPa | 0 mm | - | 0 W/m² | - |
| 1787713280 | 21.11° C | 77% | 1104.6 hPa | 0 mm | - | 0 W/m² | - |
| 1787712979 | 21.67° C | 77% | 1104.5 hPa | 0 mm | - | 0 W/m² | - |
| 1787712674 | 21.67° C | 76% | 1104.6 hPa | 0 mm | - | 0 W/m² | - |
| 1787712370 | 21.67° C | 75% | 1104.6 hPa | 0 mm | - | 0 W/m² | - |
| 1787712068 | 22.22° C | 74% | 1104.5 hPa | 0 mm | - | 0 W/m² | - |
| 1787711763 | 22.22° C | 73% | 1104.8 hPa | 0 mm | - | 0 W/m² | - |
| 1787711459 | 22.78° C | 72% | 1104.6 hPa | 0 mm | - | 0 W/m² | - |
| 1787711154 | 22.78° C | 71% | 1104.7 hPa | 0 mm | - | 0 W/m² | - |
| 1787710851 | 22.78° C | 70% | 1104.6 hPa | 0 mm | - | 0 W/m² | - |
| 1787710546 | 22.78° C | 70% | 1104.6 hPa | 0 mm | - | 0 W/m² | - |
| 1787710241 | 22.78° C | 71% | 1104.8 hPa | 0 mm | - | 0 W/m² | - |
| 1787709937 | 22.22° C | 72% | 1104.8 hPa | 0 mm | - | 0 W/m² | - |
| 1787709632 | 22.22° C | 74% | 1104.6 hPa | 0 mm | - | 0 W/m² | - |
| 1787709329 | 22.22° C | 76% | 1104.3 hPa | 0 mm | - | 0 W/m² | - |
| 1787709024 | 22.22° C | 77% | 1104.3 hPa | 0 mm | - | 0 W/m² | - |
| 1787708721 | 22.22° C | 80% | 1104.3 hPa | 0 mm | - | 0 W/m² | - |
| 1787708420 | 22.22° C | 79% | 1104.2 hPa | 0 mm | - | 0 W/m² | - |
| 1787708115 | 22.78° C | 75% | 1104.3 hPa | 0 mm | - | 0 W/m² | - |
* Rain latest hour (hover to see other rain measurements)
** Current wind speed in m/s (hover to see current wind gust speed)